Time;durP1;ratioP1;P1;durP2;ratioP2;P2;SDS_P1;SDS_P2;PMS_P1;PMS_P2;Temp;Humidity;BMP_temperature;BMP_pressure;BME280_temperature;BME280_humidity;BME280_pressure;Samples;Min_cycle;Max_cycle;Signal;HPM_P1;HPM_P2
2021/04/28 00:00:46;;;;;;;7.20;6.50;;;;;;;12.58;48.81;94497.53;5055007;28;20282;-87
2021/04/28 00:03:12;;;;;;;7.13;6.03;;;;;;;12.55;48.78;94496.16;5044854;28;20205;-86
2021/04/28 00:05:39;;;;;;;9.63;6.60;;;;;;;12.38;49.48;94502.88;5035895;28;20198;-88
2021/04/28 00:08:06;;;;;;;7.40;6.63;;;;;;;12.36;49.04;94507.47;5054061;28;20232;-87
2021/04/28 00:10:38;;;;;;;8.40;6.23;;;;;;;12.28;49.35;94508.56;5040891;28;20245;-85
2021/04/28 00:13:09;;;;;;;6.87;6.20;;;;;;;12.08;49.94;94505.38;5056286;28;20212;-88
2021/04/28 00:15:38;;;;;;;6.67;6.07;;;;;;;12.16;49.90;94499.91;5041369;28;20190;-88
2021/04/28 00:18:04;;;;;;;8.17;5.80;;;;;;;12.28;49.78;94498.22;5036050;28;20198;-87
2021/04/28 00:20:37;;;;;;;7.33;6.10;;;;;;;12.45;49.09;94490.72;5047955;28;20218;-87
2021/04/28 00:23:02;;;;;;;7.17;6.20;;;;;;;12.56;49.22;94491.78;5041052;28;20662;-86
2021/04/28 00:25:29;;;;;;;6.83;6.20;;;;;;;12.58;49.32;94497.53;5039535;28;20202;-86
2021/04/28 00:27:55;;;;;;;6.93;6.33;;;;;;;12.50;49.63;94485.72;5035913;28;20206;-87
2021/04/28 00:30:23;;;;;;;7.00;6.30;;;;;;;12.60;49.22;94491.16;5054331;28;20226;-87
2021/04/28 00:32:49;;;;;;;7.03;6.33;;;;;;;12.60;48.97;94488.56;5055441;28;20198;-86
2021/04/28 00:35:16;;;;;;;7.37;6.60;;;;;;;12.52;49.19;94488.84;5037907;28;20229;-87
2021/04/28 00:37:43;;;;;;;7.27;6.60;;;;;;;12.50;49.23;94483.13;5041651;28;20194;-87
2021/04/28 00:40:11;;;;;;;6.97;6.27;;;;;;;12.41;49.44;94486.97;5048046;28;20226;-86
2021/04/28 00:42:37;;;;;;;7.07;6.37;;;;;;;12.37;49.90;94484.03;5039965;28;20201;-86
2021/04/28 00:45:05;;;;;;;7.27;6.57;;;;;;;12.52;49.41;94485.47;5055508;28;20205;-88
2021/04/28 00:47:32;;;;;;;7.47;6.43;;;;;;;12.58;49.37;94487.19;5051469;28;20201;-86
2021/04/28 00:49:58;;;;;;;7.00;6.30;;;;;;;12.43;49.70;94484.97;5035382;28;20222;-87
2021/04/28 00:52:24;;;;;;;8.87;6.43;;;;;;;12.41;49.85;94492.94;5050174;28;20671;-87
2021/04/28 00:54:51;;;;;;;7.47;6.23;;;;;;;12.37;49.68;94488.41;5043703;28;20205;-85
2021/04/28 00:57:19;;;;;;;6.80;5.87;;;;;;;12.54;49.82;94480.88;5034910;28;20202;-86
2021/04/28 00:59:45;;;;;;;6.97;6.20;;;;;;;12.63;49.85;94475.22;5043737;28;20229;-87
2021/04/28 01:02:11;;;;;;;6.97;6.40;;;;;;;12.52;50.12;94478.50;5049220;28;20198;-85
2021/04/28 01:04:39;;;;;;;7.30;6.50;;;;;;;12.55;49.45;94485.03;5037983;28;20200;-87
2021/04/28 01:07:06;;;;;;;7.27;6.67;;;;;;;12.32;49.47;94491.63;5050818;28;20206;-87
2021/04/28 01:09:34;;;;;;;8.40;6.67;;;;;;;11.97;51.10;94481.03;5033454;28;20276;-86
2021/04/28 01:12:01;;;;;;;8.00;7.20;;;;;;;11.87;51.29;94482.53;5036010;28;20205;-88
2021/04/28 01:14:31;;;;;;;7.87;7.07;;;;;;;11.83;51.54;94479.56;5054048;28;20193;-87
2021/04/28 01:16:57;;;;;;;7.43;6.73;;;;;;;11.97;51.42;94483.63;5052510;28;20850;-87
2021/04/28 01:19:24;;;;;;;8.27;7.07;;;;;;;12.08;50.76;94477.78;5034215;28;20248;-86
2021/04/28 01:21:51;;;;;;;7.17;6.47;;;;;;;12.09;50.86;94473.41;5039007;28;20204;-86
2021/04/28 01:24:18;;;;;;;7.27;6.57;;;;;;;12.17;50.63;94480.84;5035067;28;20209;-86
2021/04/28 01:26:50;;;;;;;7.17;6.47;;;;;;;12.21;50.78;94470.91;5035947;28;20204;-86
2021/04/28 01:29:18;;;;;;;8.17;6.67;;;;;;;12.17;50.70;94480.84;5055125;28;20233;-87
2021/04/28 01:31:45;;;;;;;8.10;6.40;;;;;;;12.33;50.29;94476.94;5048306;28;20194;-88
2021/04/28 01:34:11;;;;;;;6.97;6.30;;;;;;;12.35;50.04;94478.28;5035503;28;20209;-87
2021/04/28 01:36:40;;;;;;;8.07;6.77;;;;;;;12.26;50.50;94486.53;5036562;28;20205;-87
2021/04/28 01:39:10;;;;;;;9.27;6.77;;;;;;;12.27;50.33;94493.28;5034758;28;20283;-87
2021/04/28 01:41:40;;;;;;;7.07;6.47;;;;;;;12.34;50.34;94481.88;5047422;28;20894;-87
2021/04/28 01:44:07;;;;;;;8.10;7.10;;;;;;;12.35;50.15;94478.28;5054561;28;20202;-87
2021/04/28 01:46:33;;;;;;;6.87;6.27;;;;;;;12.38;50.03;94483.03;5054061;28;20206;-88
2021/04/28 01:49:00;;;;;;;7.70;6.87;;;;;;;12.44;50.36;94481.38;5055072;28;20233;-87
2021/04/28 01:51:27;;;;;;;8.00;7.20;;;;;;;12.41;50.34;94482.59;5054611;28;20193;-87
2021/04/28 01:53:53;;;;;;;7.67;6.97;;;;;;;12.21;51.01;94489.75;5055371;28;20202;-87
2021/04/28 01:56:21;;;;;;;8.93;7.27;;;;;;;11.97;51.59;94475.09;5038049;28;20244;-88
2021/04/28 01:58:49;;;;;;;7.83;6.90;;;;;;;11.99;51.96;94481.63;5045890;28;20190;-87
2021/04/28 02:01:16;;;;;;;7.17;6.50;;;;;;;12.08;51.52;94485.50;5034242;28;20210;-87
2021/04/28 02:03:42;;;;;;;7.23;6.50;;;;;;;12.17;51.29;94486.00;5034087;28;20194;-87
2021/04/28 02:06:09;;;;;;;7.07;6.37;;;;;;;12.24;51.21;94484.16;5034352;28;20201;-86
2021/04/28 02:08:35;;;;;;;10.37;8.20;;;;;;;12.27;50.77;94481.16;5033875;28;20237;-87
2021/04/28 02:11:03;;;;;;;11.70;10.03;;;;;;;12.16;51.38;94481.84;5033742;28;20230;-86
2021/04/28 02:13:32;;;;;;;10.57;9.47;;;;;;;11.97;51.66;94481.03;5034367;28;20256;-87
2021/04/28 02:16:00;;;;;;;12.27;9.20;;;;;;;11.86;52.39;94478.38;5034328;28;20285;-88
2021/04/28 02:18:28;;;;;;;15.40;9.33;;;;;;;11.91;52.45;94470.78;5034771;28;20194;-87
2021/04/28 02:20:55;;;;;;;10.00;8.87;;;;;;;12.00;51.78;94474.66;5033187;28;20210;-88
2021/04/28 02:23:22;;;;;;;10.00;8.57;;;;;;;11.93;51.71;94472.13;5034118;28;20258;-87
2021/04/28 02:25:48;;;;;;;9.10;8.10;;;;;;;11.80;52.44;94474.84;5033521;28;20199;-87
2021/04/28 02:28:14;;;;;;;10.87;9.07;;;;;;;11.78;51.80;94474.25;5034076;28;20226;-87
2021/04/28 02:30:40;;;;;;;11.50;9.30;;;;;;;11.76;52.25;94466.72;5032830;28;20271;-87
2021/04/28 02:33:08;;;;;;;12.50;9.73;;;;;;;11.70;52.19;94467.56;5033604;28;20289;-86
2021/04/28 02:35:34;;;;;;;13.73;11.13;;;;;;;11.66;52.70;94465.59;5033674;28;20589;-87
2021/04/28 02:38:06;;;;;;;14.17;10.80;;;;;;;11.60;53.07;94463.84;5033491;28;20213;-87
2021/04/28 02:40:36;;;;;;;12.63;10.50;;;;;;;11.65;52.33;94467.38;5033518;28;20229;-87
2021/04/28 02:43:02;;;;;;;13.80;10.90;;;;;;;11.64;52.80;94468.38;5033631;28;20191;-86
2021/04/28 02:45:29;;;;;;;12.97;11.13;;;;;;;11.52;52.79;94464.13;5033336;28;20216;-87
2021/04/28 02:47:56;;;;;;;13.07;11.07;;;;;;;11.43;52.75;94464.38;5033299;28;20205;-87
2021/04/28 02:50:25;;;;;;;13.17;10.70;;;;;;;11.45;52.73;94461.59;5033141;28;20221;-87
2021/04/28 02:52:53;;;;;;;13.27;10.37;;;;;;;11.37;53.10;94464.41;5032256;28;20212;-87
2021/04/28 02:55:19;;;;;;;11.30;10.10;;;;;;;11.39;52.99;94457.25;5033112;28;20202;-86
2021/04/28 02:57:47;;;;;;;10.73;9.63;;;;;;;11.49;52.98;94454.22;5033044;28;20348;-87
2021/04/28 03:00:19;;;;;;;11.07;9.87;;;;;;;11.53;52.92;94453.63;5032316;28;20233;-87
2021/04/28 03:02:47;;;;;;;10.70;9.57;;;;;;;11.54;53.09;94447.47;5032671;28;20599;-87
2021/04/28 03:05:15;;;;;;;11.33;9.40;;;;;;;11.48;53.00;94447.50;5032941;28;20194;-86
2021/04/28 03:07:43;;;;;;;9.67;8.67;;;;;;;11.46;53.02;94452.06;5032638;28;20194;-87
2021/04/28 03:10:10;;;;;;;12.00;8.47;;;;;;;11.24;53.45;94451.63;5031080;28;20230;-87
2021/04/28 03:12:39;;;;;;;11.20;9.63;;;;;;;10.98;53.93;94448.19;5032406;28;20199;-87
2021/04/28 03:15:06;;;;;;;9.43;8.53;;;;;;;11.04;53.81;94446.59;5034275;28;20197;-87
2021/04/28 03:17:32;;;;;;;10.00;8.93;;;;;;;11.19;53.16;94452.22;5017107;28;20260;-86
2021/04/28 03:20:00;;;;;;;9.17;8.07;;;;;;;11.23;53.26;94450.81;5016869;28;20226;-87
2021/04/28 03:22:26;;;;;;;11.43;8.97;;;;;;;11.25;53.70;94450.63;5035235;28;20195;-86
2021/04/28 03:24:53;;;;;;;10.80;9.03;;;;;;;11.26;52.91;94454.78;5036468;28;20255;-87
2021/04/28 03:27:20;;;;;;;8.80;7.90;;;;;;;11.24;53.18;94451.63;5036124;28;20666;-87
2021/04/28 03:29:46;;;;;;;8.97;7.90;;;;;;;11.15;53.36;94453.66;5016246;28;20241;-85
2021/04/28 03:32:12;;;;;;;8.93;8.03;;;;;;;10.99;53.70;94451.56;5016259;28;20728;-86
2021/04/28 03:34:38;;;;;;;9.40;8.50;;;;;;;10.79;54.89;94454.22;5034748;28;20209;-87
2021/04/28 03:37:05;;;;;;;10.43;8.57;;;;;;;10.78;54.75;94455.22;5034908;28;20212;-87
2021/04/28 03:39:31;;;;;;;9.47;8.57;;;;;;;10.84;54.44;94453.63;5035475;28;20226;-86
2021/04/28 03:41:58;;;;;;;8.87;8.07;;;;;;;10.95;54.37;94458.13;5035774;28;20305;-87
2021/04/28 03:44:26;;;;;;;9.57;8.27;;;;;;;10.98;54.25;94463.66;5035948;28;20213;-86
2021/04/28 03:46:52;;;;;;;10.10;7.67;;;;;;;10.86;55.09;94460.16;5034845;28;20214;-87
2021/04/28 03:49:18;;;;;;;11.77;8.43;;;;;;;10.90;54.34;94460.53;5034839;28;20226;-86
2021/04/28 03:51:45;;;;;;;9.90;8.90;;;;;;;10.92;54.25;94461.13;5034886;28;20237;-86
2021/04/28 03:54:11;;;;;;;13.80;8.90;;;;;;;10.88;54.46;94460.75;5034686;28;20186;-87
2021/04/28 03:56:37;;;;;;;13.50;8.47;;;;;;;10.62;55.31;94463.41;5036443;28;20194;-87
2021/04/28 03:59:04;;;;;;;10.93;9.17;;;;;;;10.61;55.66;94454.13;5037207;28;20214;-87
2021/04/28 04:01:30;;;;;;;9.50;8.50;;;;;;;10.72;55.16;94459.44;5054861;28;20212;-87
2021/04/28 04:03:56;;;;;;;10.07;8.00;;;;;;;10.79;55.04;94459.38;5052471;28;20284;-87
2021/04/28 04:06:22;;;;;;;9.83;8.03;;;;;;;10.95;54.30;94461.50;5046586;28;20201;-87
2021/04/28 04:08:48;;;;;;;9.07;8.13;;;;;;;10.98;54.48;94455.13;5059426;28;20225;-86
2021/04/28 04:17:12;;;;;;;10.20;8.30;;;;;;;10.66;55.11;94457.66;4874937;29;20205;-87
2021/04/28 04:19:38;;;;;;;9.37;8.43;;;;;;;10.66;55.72;94462.03;5030872;28;20732;-87
2021/04/28 04:22:04;;;;;;;11.13;9.77;;;;;;;10.81;55.38;94456.59;5044269;28;20201;-86
2021/04/28 04:24:30;;;;;;;9.07;8.07;;;;;;;10.93;54.71;94460.91;5055731;28;20227;-87
2021/04/28 04:27:07;;;;;;;9.50;8.53;;;;;;;11.07;54.65;94464.22;5056928;28;20261;-86
2021/04/28 04:29:33;;;;;;;9.23;8.10;;;;;;;11.23;54.02;94466.28;5054126;28;20225;-87
2021/04/28 04:31:59;;;;;;;9.87;7.90;;;;;;;11.27;53.57;94472.59;5053761;28;20292;-86
2021/04/28 04:34:25;;;;;;;9.87;8.73;;;;;;;11.31;53.60;94460.09;5037159;28;20225;-86
2021/04/28 04:36:51;;;;;;;10.70;8.20;;;;;;;11.35;53.17;94467.19;5036933;28;20210;-87
2021/04/28 04:39:17;;;;;;;11.47;9.07;;;;;;;11.42;52.91;94462.78;5056487;28;20372;-87
2021/04/28 04:41:43;;;;;;;12.57;8.67;;;;;;;11.26;53.42;94465.88;5057001;28;20255;-87
2021/04/28 04:44:09;;;;;;;10.43;8.70;;;;;;;11.12;54.43;94466.97;5036252;28;20194;-86
2021/04/28 04:46:35;;;;;;;9.97;8.97;;;;;;;11.17;54.58;94464.53;5040531;28;20229;-86
2021/04/28 04:49:01;;;;;;;10.90;8.33;;;;;;;11.32;53.49;94477.16;5048122;28;20252;-85
2021/04/28 04:51:31;;;;;;;9.97;8.97;;;;;;;11.26;54.52;94470.25;5056362;28;20216;-86
2021/04/28 04:53:57;;;;;;;11.67;8.70;;;;;;;11.42;53.35;94470.53;5057282;28;20193;-85
2021/04/28 04:56:23;;;;;;;10.90;8.80;;;;;;;11.44;53.67;94475.47;5048627;28;20601;-87
2021/04/28 04:58:49;;;;;;;12.93;11.33;;;;;;;11.33;53.77;94476.94;5051819;28;20551;-86
2021/04/28 05:01:15;;;;;;;11.90;10.70;;;;;;;11.44;53.30;94472.91;5049762;28;20233;-85
2021/04/28 05:03:41;;;;;;;10.90;8.90;;;;;;;11.53;54.02;94465.72;5047957;28;20560;-85
2021/04/28 05:06:07;;;;;;;13.67;9.50;;;;;;;11.59;53.39;94464.84;5049857;28;20205;-84
2021/04/28 05:08:34;;;;;;;9.33;8.33;;;;;;;11.69;53.48;94473.72;5036822;28;20264;-85
2021/04/28 05:11:00;;;;;;;9.27;8.03;;;;;;;11.65;54.17;94469.97;5033951;28;20257;-85
2021/04/28 05:13:26;;;;;;;11.00;8.20;;;;;;;11.66;53.48;94468.97;5034884;28;20206;-85
2021/04/28 05:15:52;;;;;;;11.70;8.77;;;;;;;11.61;53.99;94471.38;5035303;28;20292;-85
2021/04/28 05:18:20;;;;;;;12.83;8.57;;;;;;;11.61;54.36;94473.97;5041192;28;20258;-86
2021/04/28 05:20:46;;;;;;;9.40;8.33;;;;;;;11.58;54.21;94476.94;5042302;28;20249;-85
2021/04/28 05:23:12;;;;;;;10.07;9.07;;;;;;;11.71;53.80;94474.28;5037122;28;20213;-85
2021/04/28 05:25:39;;;;;;;11.93;9.23;;;;;;;11.90;52.63;94477.75;5044652;28;20553;-85
2021/04/28 05:28:07;;;;;;;10.30;9.23;;;;;;;12.04;52.19;94468.88;5052633;28;20607;-87
2021/04/28 05:30:35;;;;;;;12.03;9.47;;;;;;;12.18;51.69;94476.47;5050315;28;20217;-86
2021/04/28 05:33:01;;;;;;;12.17;9.67;;;;;;;12.18;51.37;94472.13;5036498;28;20202;-86
2021/04/28 05:35:27;;;;;;;11.20;8.90;;;;;;;12.21;51.81;94470.91;5043952;28;20237;-86
2021/04/28 05:37:53;;;;;;;11.50;9.57;;;;;;;12.19;51.50;94475.47;5039746;28;20263;-87
2021/04/28 05:40:19;;;;;;;10.17;9.17;;;;;;;12.17;51.57;94469.75;5036118;28;20713;-85
2021/04/28 05:42:46;;;;;;;10.97;9.87;;;;;;;12.18;52.06;94479.84;5035914;28;20675;-87
2021/04/28 05:45:14;;;;;;;10.23;9.13;;;;;;;12.22;51.38;94475.06;5043839;28;20589;-86
2021/04/28 05:47:40;;;;;;;11.03;8.60;;;;;;;12.28;51.37;94474.22;5037378;28;20210;-89
2021/04/28 05:50:09;;;;;;;10.20;8.90;;;;;;;12.23;50.84;94474.84;5033735;28;20221;-86
2021/04/28 05:52:35;;;;;;;10.67;9.53;;;;;;;12.27;51.16;94464.91;5041926;28;20221;-86
2021/04/28 05:55:01;;;;;;;10.50;9.40;;;;;;;12.18;51.79;94473.91;5044556;28;20194;-87
2021/04/28 05:57:29;;;;;;;10.40;9.33;;;;;;;12.23;52.36;94472.28;5051214;28;20806;-86
2021/04/28 05:59:56;;;;;;;13.10;9.60;;;;;;;12.29;51.97;94471.44;5042927;28;20278;-86
2021/04/28 06:02:22;;;;;;;11.13;10.03;;;;;;;12.30;51.47;94470.44;5041769;28;20299;-86
2021/04/28 06:04:48;;;;;;;11.37;9.33;;;;;;;12.32;51.69;94465.03;5032339;28;20581;-85
2021/04/28 06:07:14;;;;;;;9.97;8.70;;;;;;;12.50;51.81;94453.94;5040158;28;20194;-86
2021/04/28 06:09:40;;;;;;;13.23;7.03;;;;;;;12.92;52.32;94458.16;5050530;28;20351;-86
2021/04/28 06:12:06;;;;;;;10.33;9.03;;;;;;;13.05;50.80;94454.66;5043398;28;20228;-85
2021/04/28 06:14:32;;;;;;;13.53;8.97;;;;;;;13.34;51.13;94460.81;5040986;28;20205;-86
2021/04/28 06:17:05;;;;;;;9.53;8.53;;;;;;;13.54;50.55;94463.91;5039097;28;20252;-85
2021/04/28 06:19:42;;;;;;;10.43;9.27;;;;;;;13.69;49.77;94456.50;5051570;28;20221;-83
2021/04/28 06:22:08;;;;;;;17.50;9.90;;;;;;;13.55;49.06;94460.31;5050824;28;20250;-81
2021/04/28 06:24:34;;;;;;;11.17;10.00;;;;;;;13.49;48.95;94454.22;5036112;28;20201;-83
2021/04/28 06:27:00;;;;;;;13.17;9.40;;;;;;;13.51;48.82;94456.59;5037602;28;20190;-82
2021/04/28 06:29:26;;;;;;;12.87;10.20;;;;;;;13.39;49.88;94459.16;5029018;28;20223;-82
2021/04/28 06:31:52;;;;;;;19.10;10.93;;;;;;;13.54;49.74;94456.16;5036486;28;20200;-83
2021/04/28 06:34:19;;;;;;;11.30;10.20;;;;;;;13.56;48.98;94454.13;5044874;28;20194;-85
2021/04/28 06:36:45;;;;;;;11.83;10.30;;;;;;;13.60;48.93;94462.25;5031347;28;20201;-84
2021/04/28 06:39:11;;;;;;;11.03;9.93;;;;;;;13.75;49.44;94460.81;5035730;28;20594;-85
2021/04/28 06:41:37;;;;;;;11.97;10.57;;;;;;;13.82;49.63;94460.72;5040151;28;20201;-83
2021/04/28 06:44:04;;;;;;;12.47;10.03;;;;;;;13.96;49.04;94467.22;5040927;28;20206;-81
2021/04/28 06:46:33;;;;;;;13.63;11.10;;;;;;;14.07;48.91;94458.66;5039288;28;20713;-85
2021/04/28 06:48:59;;;;;;;11.17;10.10;;;;;;;14.08;49.25;94465.41;5041644;28;20236;-83
2021/04/28 06:51:29;;;;;;;13.33;10.80;;;;;;;13.94;48.61;94458.91;5034517;28;20205;-84
2021/04/28 06:53:55;;;;;;;13.43;10.63;;;;;;;13.97;48.44;94457.66;5036973;28;20271;-83
2021/04/28 06:56:21;;;;;;;12.37;10.60;;;;;;;14.11;48.98;94453.84;5039838;28;20216;-83
2021/04/28 06:58:49;;;;;;;13.97;10.27;;;;;;;14.21;49.01;94456.66;5046267;28;20201;-84
2021/04/28 07:01:18;;;;;;;15.73;10.37;;;;;;;14.37;48.48;94458.56;5040997;28;20222;-84
2021/04/28 07:03:44;;;;;;;13.30;10.87;;;;;;;14.36;48.47;94462.16;5038081;28;20198;-84
2021/04/28 07:06:11;;;;;;;11.23;10.03;;;;;;;14.56;48.62;94466.22;5046475;28;20200;-85
2021/04/28 07:08:40;;;;;;;25.63;10.83;;;;;;;14.66;48.82;94469.78;5039200;28;20242;-82
2021/04/28 07:11:07;;;;;;;12.70;10.63;;;;;;;14.78;48.04;94460.19;5036192;28;20806;-81
2021/04/28 07:13:36;;;;;;;15.57;10.77;;;;;;;14.91;47.37;94472.09;5044084;28;20259;-81
2021/04/28 07:16:02;;;;;;;12.73;10.40;;;;;;;14.97;47.67;94468.59;5043885;28;20190;-81
2021/04/28 07:18:29;;;;;;;14.23;10.77;;;;;;;15.05;47.58;94468.19;5032083;28;20214;-81
2021/04/28 07:20:56;;;;;;;14.93;11.27;;;;;;;15.21;46.86;94469.25;5049500;28;20221;-81
2021/04/28 07:23:23;;;;;;;16.27;11.23;;;;;;;15.10;47.62;94464.94;5051332;28;20971;-84
2021/04/28 07:25:50;;;;;;;18.10;10.50;;;;;;;15.15;47.73;94468.41;5051861;28;20612;-81
2021/04/28 07:28:16;;;;;;;12.97;11.03;;;;;;;15.18;47.78;94470.53;5041655;28;20677;-83
2021/04/28 07:30:43;;;;;;;12.30;11.00;;;;;;;15.33;47.41;94470.00;5044551;28;20213;-80
2021/04/28 07:33:09;;;;;;;13.00;10.87;;;;;;;15.62;47.08;94473.38;5039146;28;20206;-82
2021/04/28 07:35:35;;;;;;;13.47;11.30;;;;;;;15.77;45.88;94476.25;5045376;28;20728;-81
2021/04/28 07:38:01;;;;;;;13.10;10.83;;;;;;;16.00;46.13;94475.28;5041293;28;20197;-84
2021/04/28 07:40:27;;;;;;;14.30;10.73;;;;;;;16.02;45.99;94475.81;5048866;28;20312;-84
2021/04/28 07:42:53;;;;;;;12.70;11.20;;;;;;;15.85;45.08;94473.22;5038598;28;20247;-84
2021/04/28 07:45:20;;;;;;;14.87;10.77;;;;;;;15.96;45.21;94473.41;5036660;28;20214;-82
2021/04/28 07:47:48;;;;;;;15.07;11.27;;;;;;;15.85;45.23;94480.22;5037966;28;20259;-84
2021/04/28 07:50:17;;;;;;;11.20;10.00;;;;;;;15.73;44.96;94476.94;5035501;28;20242;-83
2021/04/28 07:52:43;;;;;;;11.47;10.27;;;;;;;15.66;46.41;94482.28;5047712;28;20228;-82
2021/04/28 07:55:13;;;;;;;12.73;11.00;;;;;;;15.77;45.76;94476.25;5048246;28;20206;-83
2021/04/28 07:57:39;;;;;;;11.67;10.20;;;;;;;15.97;45.92;94480.94;5047431;28;20207;-84
2021/04/28 08:00:09;;;;;;;11.37;9.93;;;;;;;16.21;45.01;94478.94;5040941;28;20755;-82
2021/04/28 08:02:35;;;;;;;13.90;9.50;;;;;;;16.44;44.71;94472.78;5049306;28;20232;-85
2021/04/28 08:05:01;;;;;;;10.87;9.87;;;;;;;16.48;44.12;94477.25;5051425;28;20284;-84
2021/04/28 08:07:27;;;;;;;13.05;9.45;;;;;;;16.63;44.12;94471.50;5052426;28;20210;-84
2021/04/28 08:09:53;;;;;;;11.10;9.87;;;;;;;16.69;42.67;94474.97;5049256;28;20225;-85
2021/04/28 08:12:19;;;;;;;13.68;9.57;;;;;;;16.51;43.25;94469.00;5059367;28;20243;-84
2021/04/28 08:14:45;;;;;;;10.65;9.52;;;;;;;16.68;43.43;94474.16;5050488;28;20975;-81
2021/04/28 08:17:12;;;;;;;10.70;9.55;;;;;;;16.92;43.17;94470.31;5053625;28;20206;-82
2021/04/28 08:19:38;;;;;;;9.55;8.65;;;;;;;17.12;43.34;94466.38;5050270;28;20218;-83
2021/04/28 08:22:04;;;;;;;10.93;9.48;;;;;;;17.14;42.74;94472.88;5053678;28;20212;-82
2021/04/28 08:24:30;;;;;;;10.20;9.20;;;;;;;17.30;42.05;94462.63;5048630;28;20677;-80
2021/04/28 08:26:56;;;;;;;9.65;8.75;;;;;;;17.35;41.69;94471.25;5051960;28;20213;-81
2021/04/28 08:29:26;;;;;;;11.90;9.20;;;;;;;17.68;41.92;94461.72;5053137;28;20236;-86
2021/04/28 08:31:52;;;;;;;11.00;8.38;;;;;;;17.70;41.33;94468.25;5053275;28;20194;-84
2021/04/28 08:34:21;;;;;;;9.65;8.38;;;;;;;17.93;41.74;94467.09;5049736;28;20568;-84
2021/04/28 08:36:54;;;;;;;9.90;8.57;;;;;;;18.10;41.07;94474.78;5048910;28;20197;-85
2021/04/28 08:39:20;;;;;;;10.88;8.57;;;;;;;18.28;40.57;94471.75;5051604;28;20217;-85
2021/04/28 08:41:48;;;;;;;13.23;9.00;;;;;;;18.45;40.44;94471.63;5049706;28;20285;-85
2021/04/28 08:44:14;;;;;;;12.13;9.15;;;;;;;18.47;40.16;94472.16;5048337;28;20190;-86
2021/04/28 08:46:40;;;;;;;17.30;9.70;;;;;;;18.75;40.09;94469.19;5053281;28;20239;-84
2021/04/28 08:49:07;;;;;;;10.43;9.43;;;;;;;18.82;40.00;94467.16;5051946;28;20237;-84
2021/04/28 08:51:41;;;;;;;15.68;9.10;;;;;;;18.96;39.54;94460.41;5045468;28;20206;-85
2021/04/28 08:54:08;;;;;;;14.25;9.77;;;;;;;19.03;39.54;94460.19;5049130;28;20205;-85
2021/04/28 08:56:35;;;;;;;12.00;9.10;;;;;;;19.04;38.77;94464.38;5044651;28;20224;-86
2021/04/28 08:59:05;;;;;;;11.80;10.00;;;;;;;19.15;38.50;94459.94;5050229;28;20217;-86
2021/04/28 09:01:32;;;;;;;14.15;10.20;;;;;;;19.20;37.96;94463.34;5052897;28;20236;-86
2021/04/28 09:03:59;;;;;;;14.73;9.63;;;;;;;19.39;38.82;94457.66;5051374;28;20197;-84
2021/04/28 09:06:36;;;;;;;15.40;10.43;;;;;;;19.47;38.82;94452.69;5051610;28;20259;-85
2021/04/28 09:09:05;;;;;;;11.85;9.68;;;;;;;19.59;38.54;94449.88;5050807;28;20255;-86
2021/04/28 09:11:36;;;;;;;10.45;9.45;;;;;;;19.69;37.93;94446.47;5058054;28;20760;-85
2021/04/28 09:14:15;;;;;;;11.60;9.43;;;;;;;19.83;38.09;94452.75;5053973;28;20201;-85
2021/04/28 09:16:43;;;;;;;11.73;9.70;;;;;;;20.05;38.21;94450.63;5052337;28;20201;-85
2021/04/28 09:19:21;;;;;;;11.60;9.48;;;;;;;20.00;36.16;94458.50;5044026;28;20219;-86
2021/04/28 09:21:55;;;;;;;11.35;8.02;;;;;;;20.16;36.63;94457.44;5052449;28;20260;-86
2021/04/28 09:24:22;;;;;;;11.23;9.25;;;;;;;20.19;35.61;94445.69;5048708;28;20204;-87
2021/04/28 09:26:49;;;;;;;12.57;9.02;;;;;;;20.07;35.45;94450.38;5047257;28;20198;-85
2021/04/28 09:29:19;;;;;;;9.55;8.55;;;;;;;20.30;35.94;94452.44;5049759;28;20222;-85
2021/04/28 09:32:05;;;;;;;10.43;9.50;;;;;;;20.42;34.97;94446.94;5047366;28;20534;-86
2021/04/28 09:34:35;;;;;;;9.50;8.60;;;;;;;20.47;36.14;94441.72;5050044;28;20229;-85
2021/04/28 09:37:13;;;;;;;9.70;8.30;;;;;;;20.74;35.26;94439.53;5046677;28;20573;-85
2021/04/28 09:39:41;;;;;;;9.93;8.98;;;;;;;20.54;33.87;94439.63;5046528;28;20751;-85
2021/04/28 09:45:09;;;;;;;11.50;8.75;;;;;;;20.70;35.43;94438.50;5042639;28;20205;-87
2021/04/28 09:47:35;;;;;;;11.88;8.98;;;;;;;20.81;34.90;94432.16;5047942;28;20209;-87
2021/04/28 09:50:03;;;;;;;10.35;8.82;;;;;;;20.88;33.98;94431.91;5050757;28;20217;-87
2021/04/28 09:52:42;;;;;;;10.60;9.00;;;;;;;20.74;33.83;94433.53;5049550;28;20201;-86
2021/04/28 09:55:10;;;;;;;11.18;9.13;;;;;;;20.90;32.87;94430.56;5051112;28;20193;-87
2021/04/28 09:57:39;;;;;;;9.25;8.35;;;;;;;21.04;33.15;94428.94;5050306;28;20866;-87
2021/04/28 10:00:18;;;;;;;9.35;8.35;;;;;;;21.36;33.46;94422.47;5051042;28;20229;-85
2021/04/28 10:02:54;;;;;;;11.15;9.25;;;;;;;21.02;32.09;94425.81;5048383;28;20202;-88
2021/04/28 10:05:23;;;;;;;12.00;8.32;;;;;;;21.14;33.14;94422.88;5040789;28;20285;-86
2021/04/28 10:07:51;;;;;;;9.07;8.10;;;;;;;21.26;32.58;94418.09;5036114;28;20205;-86
2021/04/28 10:10:19;;;;;;;12.77;9.30;;;;;;;21.39;32.04;94419.31;5039466;28;20233;-86
2021/04/28 10:12:45;;;;;;;10.75;9.35;;;;;;;20.94;32.79;94415.13;5056600;28;20213;-87
2021/04/28 10:15:12;;;;;;;9.43;8.52;;;;;;;21.10;33.36;94398.28;5043458;28;20194;-87
2021/04/28 10:17:39;;;;;;;9.90;8.90;;;;;;;21.28;33.66;94407.38;5042598;28;20200;-87
2021/04/28 10:20:06;;;;;;;8.68;7.85;;;;;;;21.58;32.80;94412.38;5041143;28;20214;-84
2021/04/28 10:22:33;;;;;;;9.35;8.52;;;;;;;21.56;31.77;94408.47;5047038;28;20198;-83
2021/04/28 10:25:04;;;;;;;9.77;8.77;;;;;;;21.46;31.69;94403.31;5038879;28;20209;-81
2021/04/28 10:27:31;;;;;;;9.15;8.25;;;;;;;21.73;31.62;94414.13;5039039;28;20202;-84
2021/04/28 10:29:57;;;;;;;9.88;8.63;;;;;;;21.58;31.68;94406.34;5043903;28;20218;-83
2021/04/28 10:32:23;;;;;;;9.90;8.93;;;;;;;21.59;30.93;94408.72;5046099;28;20210;-85
2021/04/28 10:34:52;;;;;;;10.10;8.80;;;;;;;21.52;30.18;94404.84;5041546;28;20668;-86
2021/04/28 10:37:20;;;;;;;9.32;8.43;;;;;;;21.57;30.38;94408.19;5039133;28;20696;-87
2021/04/28 10:39:47;;;;;;;8.43;7.53;;;;;;;21.82;31.37;94403.81;5035484;28;20308;-86
2021/04/28 10:42:30;;;;;;;14.00;9.02;;;;;;;22.12;31.28;94400.19;5047878;28;20201;-82
2021/04/28 10:44:58;;;;;;;9.65;8.75;;;;;;;22.23;30.18;94406.88;5032550;28;20206;-87
2021/04/28 10:47:34;;;;;;;9.98;8.60;;;;;;;22.18;29.97;94401.66;5036085;28;20193;-86
2021/04/28 10:50:24;;;;;;;9.15;8.15;;;;;;;22.10;29.55;94402.28;5046751;28;20304;-85
2021/04/28 10:52:57;;;;;;;9.38;8.45;;;;;;;22.30;29.59;94396.84;5044666;28;20650;-83
2021/04/28 10:55:45;;;;;;;12.98;8.07;;;;;;;22.51;29.33;94394.78;5035912;28;20209;-83
2021/04/28 10:58:40;;;;;;;9.77;8.10;;;;;;;22.76;29.32;94397.09;5049371;28;20915;-82
2021/04/28 11:01:32;;;;;;;9.05;8.02;;;;;;;22.65;28.34;94391.19;5043756;28;20225;-83
2021/04/28 11:04:10;;;;;;;10.32;8.45;;;;;;;22.68;28.84;94387.22;5047283;28;20239;-82
2021/04/28 11:06:38;;;;;;;9.80;8.43;;;;;;;22.67;28.36;94385.66;5042277;28;20205;-83
2021/04/28 11:09:25;;;;;;;9.65;8.10;;;;;;;22.58;28.40;94382.88;5032485;28;20229;-84
2021/04/28 11:12:00;;;;;;;10.07;8.23;;;;;;;22.44;29.26;94389.09;5043728;28;20283;-84
2021/04/28 11:14:49;;;;;;;9.98;8.52;;;;;;;22.54;30.12;94376.63;5040049;28;20291;-82
2021/04/28 11:17:25;;;;;;;8.80;7.88;;;;;;;22.50;28.25;94380.88;5031343;28;20194;-83
2021/04/28 11:19:52;;;;;;;10.25;8.77;;;;;;;22.17;28.87;94385.16;5034926;28;20214;-81
2021/04/28 11:22:28;;;;;;;10.38;9.13;;;;;;;21.65;28.78;94391.91;5046851;28;20206;-81
2021/04/28 11:25:03;;;;;;;8.70;7.97;;;;;;;21.75;29.75;94383.16;5039499;28;20200;-81
2021/04/28 11:27:52;;;;;;;9.30;7.60;;;;;;;22.13;29.08;94376.28;5046193;28;20201;-81
2021/04/28 11:30:34;;;;;;;8.70;7.80;;;;;;;22.51;28.76;94377.22;5035434;28;20242;-81
2021/04/28 11:33:08;;;;;;;9.45;7.72;;;;;;;22.46;28.02;94377.25;5040099;28;20244;-84
2021/04/28 11:35:36;;;;;;;9.02;7.50;;;;;;;22.58;28.29;94382.09;5036655;28;20211;-83
2021/04/28 11:38:04;;;;;;;9.10;8.30;;;;;;;22.60;28.37;94369.47;5037535;28;20229;-83
2021/04/28 11:40:30;;;;;;;10.32;9.30;;;;;;;22.46;27.59;94369.38;5042322;28;20886;-84